• Join FlightAware (Why Join?)
  • Login
  • US Flag 
04:22AM EST


 

Airport Tracker/Info


-or-


 

Live Flight TrackerFlight Track Log ✈ N960DL ✈ 10-May-2013 ✈ KMCO - KCVG

Flight Track Log - Related Links

Times and Time Zones

All times are in EDT time to prevent confusion due to time zone crossing. See the N960DL flight status page for this flight to view local times or setup timezone preferences in your user account.

Time Position Orientation Groundspeed Altitude Reporting Facility
EDT Latitude Longitude Course Direction KTS MPH feet Rate Location/Type
08:09AM 28.4000 -81.3000 North 147 169 1,100  Level Orlando TRACON
08:10AM 28.3667 -81.3167 204° Southwest 237 273 2,200 2,220 Climbing Orlando TRACON
08:11AM 28.3500 -81.4167 259° West 272 313 5,600 2,640 Climbing Orlando TRACON
08:13AM 28.8892 -81.3612 350° North  Level FlightAware Approximate
08:13AM 28.4056 -81.5214 301° West 259 298 10,300  Level Jacksonville Center
08:14AM 29.0094 -81.3686 350° North  Level FlightAware Approximate
08:14AM 28.5100 -81.5367 353° North 302 348 12,000  Level Jacksonville Center
08:15AM 29.1291 -81.3833 North  Level FlightAware Approximate
08:15AM 28.6189 -81.5586 350° North 344 396 14,600  Level Jacksonville Center
08:16AM 28.7317 -81.5808 350° North 384 442 17,400 2,280 Climbing Jacksonville Center
08:17AM 28.8467 -81.6031 350° North 407 468 19,200 1,800 Climbing Jacksonville Center
08:18AM 28.9681 -81.6275 350° North 428 493 21,100 1,860 Climbing Jacksonville Center
08:19AM 29.0914 -81.6450 353° North 440 506 23,000 2,160 Climbing Jacksonville Center
08:20AM 29.2147 -81.6625 353° North 446 513 25,500 2,220 Climbing Jacksonville Center
08:21AM 29.3233 -81.6756 354° North 446 513 27,500 1,740 Climbing Jacksonville Center
08:22AM 29.4403 -81.6858 356° North 435 501 29,000 720 Climbing Jacksonville Center
08:23AM 29.5636 -81.7011 354° North 435 501 29,000  Level Jacksonville Center
08:24AM 29.6847 -81.7139 355° North 435 501 29,000  Level Jacksonville Center
08:25AM 29.8081 -81.7269 355° North 435 501 29,000  Level Jacksonville Center
08:26AM 29.9272 -81.7397 355° North 435 501 29,000  Level Jacksonville Center
08:27AM 30.0464 -81.7503 356° North 440 506 29,000  Level Jacksonville Center
08:28AM 30.1675 -81.7633 355° North 440 506 29,000  Level Jacksonville Center
08:29AM 30.2889 -81.7789 354° North 440 506 29,000  Level Jacksonville Center
08:30AM 30.4100 -81.7894 356° North 435 501 29,000  Level Jacksonville Center
08:31AM 30.5333 -81.8025 355° North 435 501 29,000  Level Jacksonville Center
08:32AM 30.6692 -81.8228 353° North 440 506 29,000  Level Jacksonville Center
08:33AM 30.7903 -81.8381 354° North 440 506 29,000  Level Jacksonville Center
08:34AM 30.9117 -81.8514 355° North 440 506 29,000  Level Jacksonville Center
08:35AM 31.0350 -81.8644 355° North 446 513 29,000  Level Jacksonville Center
08:36AM 31.1581 -81.8778 355° North 441 507 29,000  Level Jacksonville Center
08:37AM 31.2814 -81.8936 354° North 443 510 29,000  Level Jacksonville Center
08:38AM 31.3922 -81.9019 356° North 437 503 29,000  Level Jacksonville Center
08:39AM 31.5261 -81.9178 354° North 442 509 29,000  Level Jacksonville Center
08:40AM 31.6472 -81.9311 355° North 442 509 29,000  Level Jacksonville Center
08:41AM 31.7600 -81.9444 354° North 437 503 29,000  Level Jacksonville Center
08:42AM 31.8958 -81.9578 355° North 443 510 29,000  Level Jacksonville Center
08:43AM 32.0169 -81.9761 353° North 448 516 29,000  Level Jacksonville Center
08:46AM 32.2953 -82.0019 356° North 442 509 29,000  Level Atlanta Center
08:47AM 32.4189 -82.0211 353° North 442 509 29,000  Level Atlanta Center
08:48AM 32.5422 -82.0356 354° North 447 514 29,000  Level Atlanta Center
08:49AM 32.6697 -82.0475 355° North 447 514 29,000  Level Atlanta Center
08:50AM 32.7931 -82.0594 355° North 447 514 29,000  Level Atlanta Center
08:51AM 32.9186 -82.0739 354° North 447 514 29,100 480 Climbing Atlanta Center
08:52AM 33.0419 -82.0861 355° North 447 514 30,000 600 Climbing Atlanta Center
08:53AM 33.1611 -82.1083 351° North 442 509 30,400 1,080 Climbing Atlanta Center
08:54AM 33.2667 -82.1706 334° Northwest 422 486 32,200 1,500 Climbing Atlanta Center
08:55AM 33.3678 -82.2331 333° Northwest 417 480 33,500 900 Climbing Atlanta Center
08:56AM 33.4731 -82.3006 332° Northwest 412 474 34,000 240 Climbing Atlanta Center
08:57AM 33.5761 -82.3608 334° Northwest 418 481 34,000  Level Atlanta Center
08:58AM 33.6731 -82.4239 332° Northwest 405 466 34,000  Level Atlanta Center
08:59AM 33.7761 -82.4894 332° Northwest 405 466 34,000  Level Atlanta Center
09:00AM 33.8750 -82.5500 333° Northwest 398 458 34,000  Level Atlanta Center
09:01AM 33.9739 -82.6161 331° Northwest 405 466 34,000  Level Atlanta Center
09:02AM 34.0747 -82.6819 332° Northwest 399 459 34,000  Level Atlanta Center
09:03AM 34.1797 -82.7481 332° Northwest 405 466 34,000  Level Atlanta Center
09:04AM 34.2869 -82.8169 332° Northwest 405 466 34,000  Level Atlanta Center
09:05AM 34.3919 -82.8858 332° Northwest 405 466 34,000  Level Atlanta Center
09:06AM 34.4906 -82.9475 333° Northwest 400 460 34,000  Level Atlanta Center
09:07AM 34.5892 -83.0119 332° Northwest 405 466 34,000  Level Atlanta Center
09:08AM 34.6900 -83.0814 330° Northwest 400 460 34,000  Level Atlanta Center
09:09AM 34.7864 -83.1458 331° Northwest 400 460 34,000  Level Atlanta Center
09:10AM 34.8872 -83.2108 332° Northwest 405 466 34,000  Level Atlanta Center
09:11AM 34.9731 -83.2708 330° Northwest 400 460 34,000  Level Atlanta Center
09:12AM 35.0778 -83.3383 332° Northwest 400 460 34,000  Level Atlanta Center
09:13AM 35.1742 -83.4061 330° Northwest 400 460 34,000  Level Atlanta Center
09:14AM 35.2850 -83.4764 333° Northwest 400 460 34,000  Level Atlanta Center
09:15AM 35.3856 -83.5444 331° Northwest 400 460 34,000  Level Atlanta Center
09:16AM 35.4858 -83.6128 331° Northwest 400 460 34,000  Level Atlanta Center
09:17AM 35.5864 -83.6811 331° Northwest 400 460 34,000  Level Atlanta Center
09:18AM 35.6867 -83.7497 331° Northwest 400 460 34,000  Level Atlanta Center
09:19AM 35.7869 -83.8161 332° Northwest 400 460 34,000  Level Atlanta Center
09:20AM 35.8850 -83.8797 332° Northwest 400 460 34,000  Level Atlanta Center
09:21AM 36.0061 -83.8797 360° North 400 460 34,000  Level Atlanta Center
09:22AM 36.2047 -83.8431 North 449 517 34,000  Level Indianapolis Center
09:23AM 36.3508 -83.8161 North 445 512 34,000  Level Indianapolis Center
09:25AM 36.4728 -83.7953 North 445 512 34,000  Level Indianapolis Center
09:26AM 36.5914 -83.7747 North 445 512 34,000  Level Indianapolis Center
09:27AM 36.7158 -83.7536 North 447 514 34,000 -1,020 Level Indianapolis Center
09:28AM 36.8631 -83.7281 North 452 520 32,000 -1,560 Descending Indianapolis Center
09:29AM 36.9906 -83.7050 North 456 525 30,900 -1,560 Descending Indianapolis Center
09:30AM 37.1211 -83.6819 North 466 536 28,900 -2,340 Descending Indianapolis Center
09:31AM 37.2561 -83.6561 North 482 555 26,100 -2,280 Descending Indianapolis Center
09:32AM 37.3878 -83.6331 North 478 550 24,300 -1,140 Descending Indianapolis Center
09:33AM 37.5175 -83.6097 North 468 539 23,800 -780 Descending Indianapolis Center
09:34AM 37.6464 -83.5981 North 462 532 22,700 -1,080 Descending Indianapolis Center
09:35AM 37.7728 -83.6756 334° Northwest 434 499 21,600 -1,020 Descending Indianapolis Center
09:36AM 37.8775 -83.7478 331° Northwest 430 495 20,700 -1,260 Descending Indianapolis Center
09:37AM 37.9794 -83.8206 331° Northwest 420 483 19,100 -1,500 Descending Indianapolis Center
09:38AM 38.0789 -83.8894 331° Northwest 409 471 17,600 -1,440 Descending Indianapolis Center
09:39AM 38.1758 -83.9597 330° Northwest 402 463 16,200 -1,560 Descending Indianapolis Center
09:40AM 38.2717 -84.0297 330° Northwest 396 456 14,400 -1,800 Descending Indianapolis Center
09:41AM 38.3808 -84.1119 329° Northwest 390 449 12,500 -1,680 Descending Indianapolis Center
09:42AM 38.4711 -84.1781 330° Northwest 378 435 11,000 -780 Descending Indianapolis Center
09:43AM 38.5600 -84.2506 327° Northwest 378 435 11,000  Level Indianapolis Center
09:44AM 38.6508 -84.3150 331° Northwest 365 420 11,000  Level Indianapolis Center
09:45AM 38.7397 -84.3772 331° Northwest 360 414 11,000 -180 Level Indianapolis Center
09:46AM 38.8275 -84.4425 330° Northwest 359 413 10,700 -540 Descending Indianapolis Center
09:47AM 38.9167 -84.5000 333° Northwest 293 337 10,000 -1,020 Descending Cincinnati TRACON
09:48AM 38.9833 -84.5500 330° Northwest 285 328 8,800 -1,560 Descending Cincinnati TRACON
09:49AM 39.0667 -84.5500 360° North 298 343 7,100 -1,740 Descending Cincinnati TRACON